createdAt,value
2023-01-08T00:00:32.170Z,8.50
2023-01-08T00:03:00.234Z,8.42
2023-01-08T00:05:28.072Z,8.45
2023-01-08T00:08:21.329Z,8.45
2023-01-08T00:10:55.778Z,8.43
2023-01-08T00:13:24.936Z,8.52
2023-01-08T00:15:52.678Z,8.52
2023-01-08T00:18:20.171Z,8.43
2023-01-08T00:21:12.638Z,8.49
2023-01-08T00:26:38.136Z,8.52
2023-01-08T00:29:06.164Z,8.53
2023-01-08T00:31:34.123Z,8.45
2023-01-08T00:34:02.140Z,8.50
2023-01-08T00:36:30.069Z,8.49
2023-01-08T00:38:59.345Z,8.53
2023-01-08T00:41:26.185Z,8.52
2023-01-08T00:44:18.136Z,8.57
2023-01-08T00:46:46.114Z,8.53
2023-01-08T00:49:14.109Z,8.67
2023-01-08T00:51:42.133Z,8.64
2023-01-08T00:54:14.289Z,8.59
2023-01-08T00:56:42.141Z,8.66
2023-01-08T00:59:10.161Z,8.64
2023-01-08T01:01:42.327Z,8.57
2023-01-08T01:04:10.187Z,8.57
2023-01-08T01:06:38.078Z,8.60
2023-01-08T01:12:03.177Z,8.67
2023-01-08T01:15:02.671Z,8.63
2023-01-08T01:17:35.108Z,8.56
2023-01-08T01:20:02.156Z,8.64
2023-01-08T01:22:30.129Z,8.60
2023-01-08T01:24:58.275Z,8.60
2023-01-08T01:27:26.344Z,8.52
2023-01-08T01:29:54.529Z,8.67
2023-01-08T01:32:22.145Z,8.49
2023-01-08T01:34:55.115Z,8.53
2023-01-08T01:37:22.223Z,8.48
2023-01-08T01:40:21.798Z,8.45
2023-01-08T01:42:50.084Z,8.46
2023-01-08T01:45:28.796Z,8.50
2023-01-08T01:48:02.356Z,8.52
2023-01-08T01:50:34.393Z,8.53
2023-01-08T01:53:28.482Z,8.60
2023-01-08T01:56:01.935Z,8.56
2023-01-08T01:58:33.186Z,8.64
2023-01-08T02:01:06.846Z,8.66
2023-01-08T02:03:38.018Z,8.59
2023-01-08T02:06:12.553Z,8.73
2023-01-08T02:08:49.435Z,8.78
2023-01-08T02:11:23.672Z,8.71
2023-01-08T02:14:07.953Z,8.60
2023-01-08T02:16:52.720Z,8.77
2023-01-08T02:19:48.645Z,8.81
2023-01-08T02:29:03.802Z,8.78
2023-01-08T02:31:33.790Z,8.83
2023-01-08T02:34:02.530Z,8.84
2023-01-08T02:36:36.255Z,8.90
2023-01-08T02:39:44.549Z,8.80
2023-01-08T02:48:52.899Z,8.84
2023-01-08T02:51:26.580Z,8.90
2023-01-08T02:54:04.624Z,8.83
2023-01-08T02:56:38.915Z,8.78
2023-01-08T03:01:59.299Z,8.90
2023-01-08T03:04:27.777Z,9.00
2023-01-08T03:06:57.009Z,8.90
2023-01-08T03:09:29.166Z,8.93
2023-01-08T03:12:02.562Z,8.91
2023-01-08T03:15:00.475Z,8.80
2023-01-08T03:17:35.722Z,8.74
2023-01-08T03:20:15.700Z,8.93
2023-01-08T03:22:47.463Z,8.93
2023-01-08T03:25:17.327Z,8.87
2023-01-08T03:27:57.583Z,8.77
2023-01-08T03:30:28.932Z,8.77
2023-01-08T03:32:59.594Z,8.87
2023-01-08T03:35:29.507Z,8.91
2023-01-08T03:38:06.140Z,8.78
2023-01-08T03:40:39.114Z,8.80
2023-01-08T03:43:08.003Z,8.80
2023-01-08T03:46:04.705Z,8.83
2023-01-08T03:49:06.057Z,8.77
2023-01-08T03:54:43.075Z,8.66
2023-01-08T03:57:12.167Z,8.73
2023-01-08T03:59:41.255Z,8.78
2023-01-08T04:02:15.263Z,8.74
2023-01-08T04:04:42.331Z,8.80
2023-01-08T04:07:13.312Z,8.64
2023-01-08T04:09:40.096Z,8.74
2023-01-08T04:12:08.118Z,8.76
2023-01-08T04:20:20.224Z,8.81
2023-01-08T04:23:13.689Z,8.71
2023-01-08T04:25:42.102Z,8.76
2023-01-08T04:28:14.201Z,8.76
2023-01-08T04:30:42.103Z,8.87
2023-01-08T04:33:10.130Z,8.87
2023-01-08T04:35:38.125Z,8.81
2023-01-08T04:38:06.099Z,8.77
2023-01-08T04:40:34.487Z,8.90
2023-01-08T04:43:02.134Z,8.74
2023-01-08T04:45:30.068Z,8.77
2023-01-08T04:51:19.187Z,8.87
2023-01-08T04:53:51.088Z,8.90
2023-01-08T04:56:18.123Z,8.91
2023-01-08T04:58:46.119Z,8.80
2023-01-08T05:01:19.779Z,8.97
2023-01-08T05:03:53.734Z,8.87
2023-01-08T05:06:22.283Z,8.94
2023-01-08T05:08:50.229Z,9.03
2023-01-08T05:11:27.281Z,9.00
2023-01-08T05:13:54.685Z,8.95
2023-01-08T05:19:43.112Z,8.90
2023-01-08T05:22:10.150Z,8.93
2023-01-08T05:27:30.098Z,8.98
2023-01-08T05:29:58.129Z,8.91
2023-01-08T05:32:26.101Z,9.03
2023-01-08T05:34:59.217Z,9.04
2023-01-08T05:37:26.078Z,8.97
2023-01-08T05:39:54.152Z,8.97
2023-01-08T05:42:22.323Z,8.86
2023-01-08T05:44:50.116Z,8.95
2023-01-08T05:47:18.089Z,9.08
2023-01-08T05:49:51.155Z,8.98
2023-01-08T05:52:18.096Z,8.95
2023-01-08T05:54:46.102Z,9.01
2023-01-08T05:57:18.141Z,8.95
2023-01-08T05:59:46.130Z,8.94
2023-01-08T06:02:18.103Z,9.01
2023-01-08T06:05:11.669Z,9.05
2023-01-08T06:07:40.102Z,9.00
2023-01-08T06:10:08.545Z,9.05
2023-01-08T06:12:36.418Z,9.04
2023-01-08T06:15:05.791Z,9.07
2023-01-08T06:20:34.690Z,9.05
2023-01-08T06:23:03.626Z,9.03
2023-01-08T06:25:33.960Z,9.01
2023-01-08T06:28:02.406Z,9.05
2023-01-08T06:30:34.276Z,9.14
2023-01-08T06:33:02.213Z,9.10
2023-01-08T06:35:30.094Z,9.07
2023-01-08T06:40:54.147Z,9.04
2023-01-08T06:43:36.668Z,9.04
2023-01-08T06:46:10.447Z,9.00
2023-01-08T06:48:38.244Z,8.90
2023-01-08T06:51:06.572Z,8.91
2023-01-08T06:53:34.390Z,8.97
2023-01-08T06:56:04.046Z,8.97
2023-01-08T06:58:32.082Z,8.86
2023-01-08T07:01:00.158Z,8.87
2023-01-08T07:03:28.187Z,8.93
2023-01-08T07:05:56.713Z,8.80
2023-01-08T07:08:50.118Z,8.91
2023-01-08T07:11:18.139Z,8.90
2023-01-08T07:16:38.153Z,8.86
2023-01-08T07:19:06.251Z,8.91
2023-01-08T07:21:34.187Z,8.97
2023-01-08T07:24:02.157Z,8.90
2023-01-08T07:26:30.209Z,8.83
2023-01-08T07:28:58.126Z,8.88
2023-01-08T07:31:50.143Z,8.95
2023-01-08T07:34:22.122Z,8.94
2023-01-08T07:36:50.190Z,8.76
2023-01-08T07:40:06.732Z,8.83
2023-01-08T07:43:05.846Z,8.84
2023-01-08T07:45:35.619Z,8.87
2023-01-08T07:48:10.553Z,8.91
2023-01-08T07:50:44.308Z,8.80
2023-01-08T07:53:38.281Z,8.86
2023-01-08T07:56:08.275Z,8.78
2023-01-08T07:58:36.852Z,8.83
2023-01-08T08:01:11.436Z,8.78
2023-01-08T08:03:44.315Z,8.74
2023-01-08T08:06:16.118Z,8.81
2023-01-08T08:08:44.193Z,8.84
2023-01-08T08:11:12.079Z,8.74
2023-01-08T08:13:44.736Z,8.78
2023-01-08T08:16:12.960Z,8.80
2023-01-08T08:19:06.113Z,8.77
2023-01-08T08:21:34.087Z,8.87
2023-01-08T08:24:07.244Z,8.87
2023-01-08T08:26:40.162Z,8.91
2023-01-08T08:29:08.150Z,8.93
2023-01-08T08:31:36.189Z,8.91
2023-01-08T08:34:08.378Z,8.80
2023-01-08T08:36:36.053Z,8.78
2023-01-08T08:39:04.774Z,8.83
2023-01-08T08:41:32.129Z,8.87
2023-01-08T08:44:05.154Z,8.73
2023-01-08T08:46:32.282Z,8.74
2023-01-08T08:49:00.146Z,8.86
2023-01-08T08:51:32.234Z,8.83
2023-01-08T08:57:01.332Z,8.88
2023-01-08T08:59:28.141Z,8.77
2023-01-08T09:02:21.459Z,8.80
2023-01-08T09:05:14.108Z,8.86
2023-01-08T09:07:42.096Z,8.94
2023-01-08T09:10:34.162Z,8.97
2023-01-08T09:13:02.070Z,9.05
2023-01-08T09:15:30.160Z,9.08
2023-01-08T09:17:58.178Z,9.00
2023-01-08T09:20:27.168Z,8.94
2023-01-08T09:22:54.385Z,8.98
2023-01-08T09:25:22.108Z,9.10
2023-01-08T09:27:50.151Z,9.11
2023-01-08T09:30:23.173Z,9.22
2023-01-08T09:33:03.266Z,9.14
2023-01-08T09:35:31.628Z,9.12
2023-01-08T09:38:00.287Z,9.12
2023-01-08T09:40:59.826Z,9.19
2023-01-08T09:43:31.091Z,9.24
2023-01-08T09:46:02.269Z,9.31
2023-01-08T09:48:38.937Z,9.28
2023-01-08T09:51:15.303Z,9.29
2023-01-08T09:53:54.285Z,9.31
2023-01-08T09:56:27.182Z,9.32
2023-01-08T09:58:59.972Z,9.32
2023-01-08T10:01:31.091Z,9.31
2023-01-08T10:04:04.152Z,9.42
2023-01-08T10:06:32.763Z,9.47
2023-01-08T10:09:00.237Z,9.43
2023-01-08T10:11:37.911Z,9.47
2023-01-08T10:14:27.725Z,9.53
2023-01-08T10:17:03.633Z,9.54
2023-01-08T10:19:32.144Z,9.52
2023-01-08T10:22:00.125Z,9.59
2023-01-08T10:24:39.648Z,9.56
2023-01-08T10:27:23.835Z,9.53
2023-01-08T10:29:52.999Z,9.57
2023-01-08T10:32:30.127Z,9.61
2023-01-08T10:34:58.899Z,9.67
2023-01-08T10:41:20.265Z,9.71
2023-01-08T10:43:54.008Z,9.83
2023-01-08T10:46:41.637Z,9.70
2023-01-08T10:49:28.511Z,9.64
2023-01-08T10:51:56.576Z,9.69
2023-01-08T10:54:44.370Z,9.75
2023-01-08T10:57:28.937Z,9.81
2023-01-08T11:00:01.971Z,9.81
2023-01-08T11:02:39.628Z,9.83
2023-01-08T11:05:16.251Z,9.75
2023-01-08T11:07:51.047Z,9.75
2023-01-08T11:10:32.013Z,9.87
2023-01-08T11:13:07.318Z,9.88
2023-01-08T11:15:39.510Z,10.05
2023-01-08T11:18:12.968Z,9.88
2023-01-08T11:21:10.711Z,9.95
2023-01-08T11:24:37.961Z,9.97
2023-01-08T11:27:26.879Z,9.93
2023-01-08T11:30:00.108Z,10.01
2023-01-08T11:32:40.079Z,10.08
2023-01-08T11:35:21.015Z,9.94
2023-01-08T11:37:51.003Z,9.81
2023-01-08T11:40:37.040Z,9.99
2023-01-08T11:43:46.543Z,10.12
2023-01-08T11:46:17.330Z,10.21
2023-01-08T11:49:05.562Z,10.19
2023-01-08T11:51:46.562Z,10.24
2023-01-08T11:54:32.044Z,10.19
2023-01-08T11:57:26.697Z,10.17
2023-01-08T12:00:28.031Z,10.19
2023-01-08T12:02:59.584Z,10.09
2023-01-08T12:05:48.129Z,10.08
2023-01-08T12:08:23.810Z,10.04
2023-01-08T12:11:07.154Z,10.12
2023-01-08T12:14:06.113Z,10.08
2023-01-08T12:17:04.328Z,9.95
2023-01-08T12:20:14.034Z,10.04
2023-01-08T12:26:40.403Z,9.94
2023-01-08T12:29:27.943Z,9.98
2023-01-08T12:32:10.417Z,9.97
2023-01-08T12:34:38.058Z,9.91
2023-01-08T12:37:32.049Z,9.95
2023-01-08T12:40:18.610Z,9.88
2023-01-08T12:43:21.262Z,9.90
2023-01-08T12:45:52.226Z,9.80
2023-01-08T12:48:25.634Z,9.86
2023-01-08T12:51:36.445Z,9.95
2023-01-08T12:54:22.378Z,9.88
2023-01-08T12:57:07.665Z,9.84
2023-01-08T12:59:48.244Z,9.87
2023-01-08T13:02:38.692Z,9.93
2023-01-08T13:05:20.698Z,9.93
2023-01-08T13:08:31.575Z,9.97
2023-01-08T13:11:00.596Z,10.02
2023-01-08T13:13:34.060Z,9.98
2023-01-08T13:16:09.884Z,10.07
2023-01-08T13:21:58.101Z,10.05
2023-01-08T13:24:46.106Z,10.01
2023-01-08T13:27:17.104Z,10.02
2023-01-08T13:29:51.198Z,10.01
2023-01-08T13:32:27.097Z,10.05
2023-01-08T13:35:23.626Z,9.94
2023-01-08T13:41:30.603Z,9.90
2023-01-08T13:44:06.730Z,10.07
2023-01-08T13:46:37.807Z,10.04
2023-01-08T13:49:14.408Z,10.08
2023-01-08T13:51:44.632Z,10.02
2023-01-08T13:54:17.349Z,9.95
2023-01-08T13:56:54.397Z,9.94
2023-01-08T13:59:55.306Z,9.95
2023-01-08T14:02:50.445Z,9.84
2023-01-08T14:05:29.828Z,9.90
2023-01-08T14:07:59.074Z,9.79
2023-01-08T14:10:28.860Z,9.67
2023-01-08T14:13:08.665Z,9.73
2023-01-08T14:15:39.112Z,9.66
2023-01-08T14:18:11.565Z,9.57
2023-01-08T14:20:43.119Z,9.61
2023-01-08T14:23:24.922Z,9.60
2023-01-08T14:25:52.526Z,9.71
2023-01-08T14:31:23.313Z,9.54
2023-01-08T14:33:57.089Z,9.39
2023-01-08T14:36:24.780Z,9.44
2023-01-08T14:38:57.346Z,9.54
2023-01-08T14:41:53.708Z,9.56
2023-01-08T14:44:36.248Z,9.44
2023-01-08T14:47:07.057Z,9.32
2023-01-08T14:50:05.837Z,9.40
2023-01-08T14:53:00.175Z,9.29
2023-01-08T14:55:29.269Z,9.36
2023-01-08T14:57:57.191Z,9.26
2023-01-08T15:00:31.854Z,9.18
2023-01-08T15:03:00.167Z,9.32
2023-01-08T15:05:37.781Z,9.14
2023-01-08T15:08:39.594Z,9.18
2023-01-08T15:11:25.084Z,9.16
2023-01-08T15:14:01.707Z,9.12
2023-01-08T15:16:42.577Z,9.07
2023-01-08T15:19:17.899Z,8.88
2023-01-08T15:25:22.720Z,8.81
2023-01-08T15:31:55.412Z,8.88
2023-01-08T15:34:22.127Z,8.81
2023-01-08T15:36:50.171Z,8.66
2023-01-08T15:39:23.111Z,8.64
2023-01-08T15:42:08.648Z,8.64
2023-01-08T15:44:36.161Z,8.68
2023-01-08T15:47:09.222Z,8.73
2023-01-08T15:49:36.251Z,8.70
2023-01-08T15:52:04.731Z,8.64
2023-01-08T15:54:37.230Z,8.67
2023-01-08T15:57:04.161Z,8.64
2023-01-08T15:59:36.101Z,8.57
2023-01-08T16:02:04.239Z,8.50
2023-01-08T16:04:32.113Z,8.46
2023-01-08T16:07:05.126Z,8.45
2023-01-08T16:09:32.214Z,8.43
2023-01-08T16:12:00.252Z,8.43
2023-01-08T16:14:34.222Z,8.43
2023-01-08T16:17:02.109Z,8.40
2023-01-08T16:19:31.110Z,8.30
2023-01-08T16:21:58.715Z,8.40
2023-01-08T16:24:32.454Z,8.39
2023-01-08T16:27:00.893Z,8.33
2023-01-08T16:29:28.096Z,8.12
2023-01-08T16:31:56.209Z,8.21
2023-01-08T16:34:54.921Z,8.07
2023-01-08T16:37:22.792Z,8.10
2023-01-08T16:39:50.121Z,8.08
2023-01-08T16:42:18.145Z,7.94
2023-01-08T16:44:46.177Z,7.84
2023-01-08T16:47:19.222Z,7.94
2023-01-08T16:49:52.569Z,7.87
2023-01-08T16:52:20.145Z,7.87
2023-01-08T16:54:48.903Z,7.90
2023-01-08T16:57:22.090Z,7.91
2023-01-08T16:59:50.146Z,7.95
2023-01-08T17:02:19.348Z,7.93
2023-01-08T17:04:46.129Z,7.98
2023-01-08T17:12:58.115Z,7.94
2023-01-08T17:15:26.227Z,7.94
2023-01-08T17:17:54.163Z,8.00
2023-01-08T17:20:22.159Z,7.90
2023-01-08T17:22:55.228Z,7.93
2023-01-08T17:25:22.093Z,7.91
2023-01-08T17:27:50.155Z,7.95
2023-01-08T17:30:22.291Z,8.01
2023-01-08T17:32:50.120Z,7.90
2023-01-08T17:35:42.116Z,7.90
2023-01-08T17:38:10.521Z,7.89
2023-01-08T17:40:38.139Z,7.87
2023-01-08T17:43:07.889Z,7.94
2023-01-08T17:45:41.178Z,7.91
2023-01-08T17:48:34.271Z,7.91
2023-01-08T17:51:08.575Z,7.86
2023-01-08T17:53:41.264Z,7.90
2023-01-08T17:56:08.303Z,7.90
2023-01-08T17:58:36.185Z,7.84
2023-01-08T18:04:02.853Z,7.89
2023-01-08T18:06:36.130Z,7.87
2023-01-08T18:09:04.479Z,7.84
2023-01-08T18:11:38.179Z,7.86
2023-01-08T18:14:13.799Z,7.89
2023-01-08T18:16:49.383Z,7.81
2023-01-08T18:19:43.600Z,8.01
2023-01-08T18:22:12.426Z,8.00
2023-01-08T18:24:42.601Z,8.02
2023-01-08T18:27:13.445Z,8.11
2023-01-08T18:29:42.269Z,8.18
2023-01-08T18:32:10.138Z,8.14
2023-01-08T18:37:32.330Z,8.21
2023-01-08T18:40:00.174Z,8.07
2023-01-08T18:42:33.374Z,8.05
2023-01-08T18:45:00.640Z,8.11
2023-01-08T18:47:28.979Z,8.11
2023-01-08T18:50:22.222Z,8.04
2023-01-08T18:52:50.114Z,8.05
2023-01-08T18:55:18.266Z,8.02
2023-01-08T18:57:47.322Z,8.01
2023-01-08T19:03:08.862Z,8.04
2023-01-08T19:05:42.713Z,8.05
2023-01-08T19:08:16.126Z,7.91
2023-01-08T19:10:44.224Z,8.01
2023-01-08T19:13:12.134Z,8.10
2023-01-08T19:15:40.181Z,7.90
2023-01-08T19:18:11.210Z,7.84
2023-01-08T19:20:49.924Z,7.93
2023-01-08T19:23:18.079Z,7.91
2023-01-08T19:25:46.110Z,7.84
2023-01-08T19:28:14.226Z,7.86
2023-01-08T19:30:42.779Z,7.91
2023-01-08T19:33:10.572Z,7.97
2023-01-08T19:38:32.096Z,7.76
2023-01-08T19:41:42.630Z,7.86
2023-01-08T19:44:10.277Z,7.84
2023-01-08T19:47:04.381Z,7.71
2023-01-08T19:49:36.090Z,7.59
2023-01-08T19:52:05.132Z,7.62
2023-01-08T19:54:35.960Z,7.56
2023-01-08T19:57:04.149Z,7.52
2023-01-08T19:59:43.031Z,7.56
2023-01-08T20:02:14.533Z,7.55
2023-01-08T20:04:43.867Z,7.29
2023-01-08T20:07:13.456Z,7.45
2023-01-08T20:09:41.954Z,7.35
2023-01-08T20:12:14.819Z,7.42
2023-01-08T20:14:42.415Z,7.34
2023-01-08T20:17:14.878Z,7.14
2023-01-08T20:19:42.588Z,7.28
2023-01-08T20:22:10.452Z,7.36
2023-01-08T20:24:38.730Z,7.28
2023-01-08T20:27:07.596Z,7.29
2023-01-08T20:29:40.137Z,7.22
2023-01-08T20:32:08.133Z,7.22
2023-01-08T20:34:36.435Z,7.15
2023-01-08T20:37:06.538Z,7.24
2023-01-08T20:42:34.188Z,7.38
2023-01-08T20:45:02.294Z,7.26
2023-01-08T20:47:30.219Z,7.35
2023-01-08T20:50:12.389Z,7.31
2023-01-08T20:52:54.866Z,7.17
2023-01-08T20:55:22.453Z,7.29
2023-01-08T20:57:50.266Z,7.25
2023-01-08T21:00:18.723Z,7.32
2023-01-08T21:05:44.597Z,7.08
2023-01-08T21:08:20.308Z,7.01
2023-01-08T21:11:10.497Z,7.04
2023-01-08T21:13:43.518Z,7.03
2023-01-08T21:16:18.342Z,7.01
2023-01-08T21:18:49.248Z,7.07
2023-01-08T21:24:34.431Z,6.80
2023-01-08T21:27:03.032Z,6.79
2023-01-08T21:29:30.181Z,6.84
2023-01-08T21:34:50.205Z,6.83
2023-01-08T21:37:18.824Z,6.80
2023-01-08T21:39:47.511Z,6.83
2023-01-08T21:42:38.795Z,6.90
2023-01-08T21:45:24.715Z,6.84
2023-01-08T21:47:58.858Z,6.77
2023-01-08T21:51:02.587Z,6.83
2023-01-08T21:53:56.601Z,6.81
2023-01-08T21:56:24.307Z,6.80
2023-01-08T21:58:52.290Z,6.75
2023-01-08T22:01:20.421Z,6.75
2023-01-08T22:03:48.292Z,6.70
2023-01-08T22:06:16.158Z,6.65
2023-01-08T22:08:53.346Z,6.62
2023-01-08T22:11:22.127Z,6.65
2023-01-08T22:13:50.103Z,6.66
2023-01-08T22:16:20.412Z,6.70
2023-01-08T22:18:48.148Z,6.57
2023-01-08T22:21:16.202Z,6.77
2023-01-08T22:23:49.184Z,6.76
2023-01-08T22:26:16.130Z,6.73
2023-01-08T22:28:44.149Z,6.76
2023-01-08T22:31:14.598Z,6.76
2023-01-08T22:33:42.719Z,6.81
2023-01-08T22:36:13.268Z,6.75
2023-01-08T22:38:40.348Z,6.76
2023-01-08T22:41:17.457Z,6.83
2023-01-08T22:43:44.609Z,6.76
2023-01-08T22:46:14.966Z,6.73
2023-01-08T22:48:43.601Z,6.79
2023-01-08T22:51:12.247Z,6.79
2023-01-08T22:53:40.603Z,6.72
2023-01-08T22:56:12.189Z,6.62
2023-01-08T22:58:43.375Z,6.77
2023-01-08T23:01:15.087Z,6.66
2023-01-08T23:03:45.281Z,6.68
2023-01-08T23:06:38.336Z,6.77
2023-01-08T23:09:06.709Z,6.59
2023-01-08T23:11:59.757Z,6.59
2023-01-08T23:14:30.109Z,6.68
2023-01-08T23:16:58.452Z,6.75
2023-01-08T23:19:26.160Z,6.81
2023-01-08T23:21:54.198Z,6.75
2023-01-08T23:24:22.193Z,6.73
2023-01-08T23:26:50.149Z,6.60
2023-01-08T23:29:23.114Z,6.63
2023-01-08T23:31:54.755Z,6.68
2023-01-08T23:34:22.458Z,6.75
2023-01-08T23:36:50.387Z,6.76
2023-01-08T23:39:18.133Z,6.68
2023-01-08T23:42:10.261Z,6.70
2023-01-08T23:44:38.415Z,6.69
2023-01-08T23:47:08.255Z,6.76
2023-01-08T23:49:36.319Z,6.66
2023-01-08T23:52:30.097Z,6.72
2023-01-08T23:54:58.139Z,6.65
2023-01-08T23:57:26.283Z,6.68
2023-01-08T23:59:55.115Z,6.69
